Time,TemperatureF,DewpointF,PressureIn,WindDirection,WindDirectionDegrees,WindSpeedMPH,WindSpeedGustMPH,Humidity,HourlyPrecipIn,Conditions,Clouds,dailyrainin,SoftwareType,DateUTC
2013-04-01 00:00:00,61.0,58.0,29.95,SW,230,11.0,15.0,90,-99.99,,,-99.99,,2013-04-01 04:00:00,
2013-04-01 00:22:00,61.0,58.0,29.95,SW,230,11.0,15.0,90,-99.99,,,-99.99,,2013-04-01 04:22:00,
2013-04-01 00:32:00,61.0,58.0,29.95,SW,230,11.0,15.0,90,-99.99,,,-99.99,,2013-04-01 04:32:00,
2013-04-01 00:42:00,61.0,58.0,29.95,SW,230,11.0,15.0,90,-99.99,,,-99.99,,2013-04-01 04:42:00,
2013-04-01 00:52:00,61.0,58.0,29.95,SW,230,11.0,15.0,90,-99.99,,,-99.99,,2013-04-01 04:52:00,
2013-04-01 01:00:00,61.0,59.0,29.96,SW,230,11.0,15.0,92,-99.99,,,-99.99,,2013-04-01 05:00:00,
2013-04-01 01:21:00,61.0,59.0,29.96,SW,230,11.0,15.0,92,-99.99,,,-99.99,,2013-04-01 05:21:00,
2013-04-01 01:31:00,61.0,59.0,29.96,SW,230,11.0,15.0,92,-99.99,,,-99.99,,2013-04-01 05:31:00,
2013-04-01 01:42:00,61.0,59.0,29.96,SW,230,11.0,15.0,92,-99.99,,,-99.99,,2013-04-01 05:42:00,
2013-04-01 01:52:00,61.0,59.0,29.96,SW,230,11.0,15.0,92,-99.99,,,-99.99,,2013-04-01 05:52:00,
2013-04-01 02:00:00,60.0,59.0,29.95,SW,220,13.0,15.0,96,-99.99,,,-99.99,,2013-04-01 06:00:00,
2013-04-01 02:22:00,60.0,59.0,29.95,SW,220,13.0,15.0,96,-99.99,,,-99.99,,2013-04-01 06:22:00,
2013-04-01 02:32:00,60.0,59.0,29.95,SW,220,13.0,15.0,96,-99.99,,,-99.99,,2013-04-01 06:32:00,
2013-04-01 02:42:00,60.0,59.0,29.95,SW,220,13.0,15.0,96,-99.99,,,-99.99,,2013-04-01 06:42:00,
2013-04-01 02:52:00,60.0,59.0,29.95,SW,220,13.0,15.0,96,-99.99,,,-99.99,,2013-04-01 06:52:00,
2013-04-01 03:00:00,60.0,58.0,29.93,SW,230,10.0,13.0,94,-99.99,,,-99.99,,2013-04-01 07:00:00,
2013-04-01 03:21:00,60.0,58.0,29.93,SW,230,10.0,13.0,94,-99.99,,,-99.99,,2013-04-01 07:21:00,
2013-04-01 03:31:00,60.0,58.0,29.93,SW,230,10.0,13.0,94,-99.99,,,-99.99,,2013-04-01 07:31:00,
2013-04-01 03:42:00,60.0,58.0,29.93,SW,230,10.0,13.0,94,-99.99,,,-99.99,,2013-04-01 07:42:00,
2013-04-01 03:52:00,60.0,58.0,29.93,SW,230,10.0,13.0,94,-99.99,,,-99.99,,2013-04-01 07:52:00,
2013-04-01 04:00:00,59.0,57.0,29.91,SW,230,10.0,14.0,93,-99.99,,,-99.99,,2013-04-01 08:00:00,
2013-04-01 04:21:00,59.0,57.0,29.91,SW,230,10.0,14.0,93,-99.99,,,-99.99,,2013-04-01 08:21:00,
2013-04-01 04:31:00,59.0,57.0,29.91,SW,230,10.0,14.0,93,-99.99,,,-99.99,,2013-04-01 08:31:00,
2013-04-01 04:42:00,59.0,57.0,29.91,SW,230,10.0,14.0,93,-99.99,,,-99.99,,2013-04-01 08:42:00,
2013-04-01 04:52:00,59.0,57.0,29.91,SW,230,10.0,14.0,93,-99.99,,,-99.99,,2013-04-01 08:52:00,
2013-04-01 05:00:00,60.0,57.0,29.92,WSW,240,7.0,8.0,90,-99.99,,,-99.99,,2013-04-01 09:00:00,
2013-04-01 05:21:00,60.0,57.0,29.92,WSW,240,7.0,8.0,90,-99.99,,,-99.99,,2013-04-01 09:21:00,
2013-04-01 05:32:00,60.0,57.0,29.92,WSW,240,7.0,8.0,90,-99.99,,,-99.99,,2013-04-01 09:32:00,
2013-04-01 05:42:00,60.0,57.0,29.92,WSW,240,7.0,8.0,90,-99.99,,,-99.99,,2013-04-01 09:42:00,
2013-04-01 05:52:00,60.0,57.0,29.92,WSW,240,7.0,8.0,90,-99.99,,,-99.99,,2013-04-01 09:52:00,
2013-04-01 06:00:00,60.0,57.0,29.92,SW,230,6.0,8.0,90,-99.99,,,-99.99,,2013-04-01 10:00:00,
2013-04-01 06:22:00,60.0,57.0,29.92,SW,230,6.0,8.0,90,-99.99,,,-99.99,,2013-04-01 10:22:00,
2013-04-01 06:32:00,60.0,57.0,29.92,SW,230,6.0,8.0,90,-99.99,,,-99.99,,2013-04-01 10:32:00,
2013-04-01 06:42:00,60.0,57.0,29.92,SW,230,6.0,8.0,90,-99.99,,,-99.99,,2013-04-01 10:42:00,
2013-04-01 06:52:00,60.0,57.0,29.92,SW,230,6.0,8.0,90,-99.99,,,-99.99,,2013-04-01 10:52:00,
2013-04-01 07:00:00,59.0,58.0,29.93,SW,230,8.0,10.0,95,-99.99,,,-99.99,,2013-04-01 11:00:00,
2013-04-01 07:32:00,59.0,58.0,29.93,SW,230,8.0,10.0,95,-99.99,,,-99.99,,2013-04-01 11:32:00,
2013-04-01 07:41:00,59.0,58.0,29.93,SW,230,8.0,10.0,95,-99.99,,,-99.99,,2013-04-01 11:41:00,
2013-04-01 07:52:00,59.0,58.0,29.93,SW,230,8.0,10.0,95,-99.99,,,-99.99,,2013-04-01 11:52:00,
2013-04-01 08:00:00,59.0,58.0,29.95,SSW,200,5.0,6.0,97,-99.99,,,-99.99,,2013-04-01 12:00:00,
2013-04-01 08:21:00,59.0,58.0,29.95,SSW,200,5.0,6.0,97,-99.99,,,-99.99,,2013-04-01 12:21:00,
2013-04-01 08:31:00,59.0,58.0,29.95,SSW,200,5.0,6.0,97,-99.99,,,-99.99,,2013-04-01 12:31:00,
2013-04-01 08:41:00,59.0,58.0,29.95,SSW,200,5.0,6.0,97,-99.99,,,-99.99,,2013-04-01 12:41:00,
2013-04-01 08:52:00,59.0,58.0,29.95,SSW,200,5.0,6.0,97,-99.99,,,-99.99,,2013-04-01 12:52:00,
2013-04-01 09:21:00,59.0,59.0,29.96,SSW,210,11.0,13.0,99,-99.99,,,-99.99,,2013-04-01 13:21:00,
2013-04-01 09:31:00,59.0,59.0,29.96,SSW,210,11.0,13.0,99,-99.99,,,-99.99,,2013-04-01 13:31:00,
2013-04-01 09:41:00,59.0,59.0,29.96,SSW,210,11.0,13.0,99,-99.99,,,-99.99,,2013-04-01 13:41:00,
2013-04-01 09:52:00,59.0,59.0,29.96,SSW,210,11.0,13.0,99,-99.99,,,-99.99,,2013-04-01 13:52:00,
2013-04-01 10:00:00,59.0,59.0,29.97,SW,220,13.0,15.0,100,-99.99,,,-99.99,,2013-04-01 14:00:00,
2013-04-01 10:21:00,59.0,59.0,29.97,SW,220,13.0,15.0,100,-99.99,,,-99.99,,2013-04-01 14:21:00,
2013-04-01 10:32:00,59.0,59.0,29.97,SW,220,13.0,15.0,100,-99.99,,,-99.99,,2013-04-01 14:32:00,
2013-04-01 10:41:00,59.0,59.0,29.97,SW,220,13.0,15.0,100,-99.99,,,-99.99,,2013-04-01 14:41:00,
2013-04-01 10:52:00,59.0,59.0,29.97,SW,220,13.0,15.0,100,-99.99,,,-99.99,,2013-04-01 14:52:00,
2013-04-01 11:00:00,60.0,59.0,29.95,SW,220,11.0,14.0,98,-99.99,,,-99.99,,2013-04-01 15:00:00,
2013-04-01 11:22:00,60.0,59.0,29.95,SW,220,11.0,14.0,98,-99.99,,,-99.99,,2013-04-01 15:22:00,
2013-04-01 11:33:00,60.0,59.0,29.95,SW,220,11.0,14.0,98,-99.99,,,-99.99,,2013-04-01 15:33:00,
2013-04-01 11:42:00,60.0,59.0,29.95,SW,220,11.0,14.0,98,-99.99,,,-99.99,,2013-04-01 15:42:00,
2013-04-01 11:53:00,60.0,59.0,29.95,SW,220,11.0,14.0,98,-99.99,,,-99.99,,2013-04-01 15:53:00,
2013-04-01 12:00:00,60.0,59.0,29.96,SW,220,11.0,14.0,95,-99.99,,,-99.99,,2013-04-01 16:00:00,
2013-04-01 12:22:00,60.0,59.0,29.96,SW,220,11.0,14.0,95,-99.99,,,-99.99,,2013-04-01 16:22:00,
2013-04-01 12:32:00,60.0,59.0,29.96,SW,220,11.0,14.0,95,-99.99,,,-99.99,,2013-04-01 16:32:00,
2013-04-01 12:41:00,60.0,59.0,29.96,SW,220,11.0,14.0,95,-99.99,,,-99.99,,2013-04-01 16:41:00,
2013-04-01 12:52:00,60.0,59.0,29.96,SW,220,11.0,14.0,95,-99.99,,,-99.99,,2013-04-01 16:52:00,
2013-04-01 13:00:00,60.0,59.0,29.94,SSW,210,13.0,14.0,94,-99.99,,,-99.99,,2013-04-01 17:00:00,
2013-04-01 13:22:00,60.0,59.0,29.94,SSW,210,13.0,14.0,94,-99.99,,,-99.99,,2013-04-01 17:22:00,
2013-04-01 13:31:00,60.0,59.0,29.94,SSW,210,13.0,14.0,94,-99.99,,,-99.99,,2013-04-01 17:31:00,
2013-04-01 13:41:00,60.0,59.0,29.94,SSW,210,13.0,14.0,94,-99.99,,,-99.99,,2013-04-01 17:41:00,
2013-04-01 13:52:00,60.0,59.0,29.94,SSW,210,13.0,14.0,94,-99.99,,,-99.99,,2013-04-01 17:52:00,
2013-04-01 14:00:00,62.0,59.0,29.92,SW,220,13.0,15.0,92,-99.99,,,-99.99,,2013-04-01 18:00:00,
2013-04-01 14:21:00,62.0,59.0,29.92,SW,220,13.0,15.0,92,-99.99,,,-99.99,,2013-04-01 18:21:00,
2013-04-01 14:32:00,62.0,59.0,29.92,SW,220,13.0,15.0,92,-99.99,,,-99.99,,2013-04-01 18:32:00,
2013-04-01 14:41:00,62.0,59.0,29.92,SW,220,13.0,15.0,92,-99.99,,,-99.99,,2013-04-01 18:41:00,
2013-04-01 14:51:00,62.0,59.0,29.92,SW,220,13.0,15.0,92,-99.99,,,-99.99,,2013-04-01 18:51:00,
2013-04-01 15:00:00,63.0,60.0,29.90,SW,220,11.0,14.0,89,-99.99,,,-99.99,,2013-04-01 19:00:00,
2013-04-01 15:21:00,63.0,60.0,29.90,SW,220,11.0,14.0,89,-99.99,,,-99.99,,2013-04-01 19:21:00,
2013-04-01 15:31:00,63.0,60.0,29.90,SW,220,11.0,14.0,89,-99.99,,,-99.99,,2013-04-01 19:31:00,
2013-04-01 15:41:00,63.0,60.0,29.90,SW,220,11.0,14.0,89,-99.99,,,-99.99,,2013-04-01 19:41:00,
2013-04-01 15:52:00,63.0,60.0,29.90,SW,220,11.0,14.0,89,-99.99,,,-99.99,,2013-04-01 19:52:00,
2013-04-01 16:00:00,61.0,60.0,29.88,SW,220,14.0,15.0,94,-99.99,,,-99.99,,2013-04-01 20:00:00,
2013-04-01 16:21:00,61.0,60.0,29.88,SW,220,14.0,15.0,94,-99.99,,,-99.99,,2013-04-01 20:21:00,
2013-04-01 16:32:00,61.0,60.0,29.88,SW,220,14.0,15.0,94,-99.99,,,-99.99,,2013-04-01 20:32:00,
2013-04-01 16:42:00,61.0,60.0,29.88,SW,220,14.0,15.0,94,-99.99,,,-99.99,,2013-04-01 20:42:00,
2013-04-01 16:51:00,61.0,60.0,29.88,SW,220,14.0,15.0,94,-99.99,,,-99.99,,2013-04-01 20:51:00,
2013-04-01 17:22:00,62.0,59.0,29.88,SSW,210,15.0,16.0,89,-99.99,,,-99.99,,2013-04-01 21:22:00,
2013-04-01 17:32:00,62.0,59.0,29.88,SSW,210,15.0,16.0,89,-99.99,,,-99.99,,2013-04-01 21:32:00,
2013-04-01 17:43:00,62.0,59.0,29.88,SSW,210,15.0,16.0,89,-99.99,,,-99.99,,2013-04-01 21:43:00,
2013-04-01 17:52:00,62.0,59.0,29.88,SSW,210,15.0,16.0,89,-99.99,,,-99.99,,2013-04-01 21:52:00,
2013-04-01 18:00:00,63.0,60.0,29.88,SW,220,11.0,14.0,87,-99.99,,,-99.99,,2013-04-01 22:00:00,
2013-04-01 18:22:00,63.0,60.0,29.88,SW,220,11.0,14.0,87,-99.99,,,-99.99,,2013-04-01 22:22:00,
2013-04-01 18:32:00,63.0,60.0,29.88,SW,220,11.0,14.0,87,-99.99,,,-99.99,,2013-04-01 22:32:00,
2013-04-01 18:42:00,63.0,60.0,29.88,SW,220,11.0,14.0,87,-99.99,,,-99.99,,2013-04-01 22:42:00,
2013-04-01 18:52:00,63.0,60.0,29.88,SW,220,11.0,14.0,87,-99.99,,,-99.99,,2013-04-01 22:52:00,
2013-04-01 19:00:00,63.0,60.0,29.90,SW,220,10.0,11.0,89,-99.99,,,-99.99,,2013-04-01 23:00:00,
2013-04-01 19:21:00,63.0,60.0,29.90,SW,220,10.0,11.0,89,-99.99,,,-99.99,,2013-04-01 23:21:00,
2013-04-01 19:32:00,63.0,60.0,29.90,SW,220,10.0,11.0,89,-99.99,,,-99.99,,2013-04-01 23:32:00,
2013-04-01 19:42:00,63.0,60.0,29.90,SW,220,10.0,11.0,89,-99.99,,,-99.99,,2013-04-01 23:42:00,
2013-04-01 19:52:00,63.0,60.0,29.90,SW,220,10.0,11.0,89,-99.99,,,-99.99,,2013-04-01 23:52:00,
2013-04-01 20:00:00,60.0,60.0,29.91,SW,220,8.0,8.0,96,-99.99,,,-99.99,,2013-04-02 00:00:00,
2013-04-01 20:21:00,60.0,60.0,29.91,SW,220,8.0,8.0,96,-99.99,,,-99.99,,2013-04-02 00:21:00,
2013-04-01 20:32:00,60.0,60.0,29.91,SW,220,8.0,8.0,96,-99.99,,,-99.99,,2013-04-02 00:32:00,
2013-04-01 20:41:00,60.0,60.0,29.91,SW,220,8.0,8.0,96,-99.99,,,-99.99,,2013-04-02 00:41:00,
2013-04-01 20:52:00,60.0,60.0,29.91,SW,220,8.0,8.0,96,-99.99,,,-99.99,,2013-04-02 00:52:00,
2013-04-01 21:21:00,60.0,60.0,29.92,SW,230,6.0,7.0,98,-99.99,,,-99.99,,2013-04-02 01:21:00,
2013-04-01 21:31:00,60.0,60.0,29.92,SW,230,6.0,7.0,98,-99.99,,,-99.99,,2013-04-02 01:31:00,
2013-04-01 21:41:00,60.0,60.0,29.92,SW,230,6.0,7.0,98,-99.99,,,-99.99,,2013-04-02 01:41:00,
2013-04-01 21:52:00,60.0,60.0,29.92,SW,230,6.0,7.0,98,-99.99,,,-99.99,,2013-04-02 01:52:00,
2013-04-01 22:00:00,60.0,60.0,29.94,SSW,210,8.0,9.0,99,-99.99,,,-99.99,,2013-04-02 02:00:00,
2013-04-01 22:21:00,60.0,60.0,29.94,SSW,210,8.0,9.0,99,-99.99,,,-99.99,,2013-04-02 02:21:00,
2013-04-01 22:31:00,60.0,60.0,29.94,SSW,210,8.0,9.0,99,-99.99,,,-99.99,,2013-04-02 02:31:00,
2013-04-01 22:41:00,60.0,60.0,29.94,SSW,210,8.0,9.0,99,-99.99,,,-99.99,,2013-04-02 02:41:00,
2013-04-01 22:52:00,60.0,60.0,29.94,SSW,210,8.0,9.0,99,-99.99,,,-99.99,,2013-04-02 02:52:00,
2013-04-01 23:00:00,60.0,60.0,29.96,SW,230,7.0,9.0,100,-99.99,,,-99.99,,2013-04-02 03:00:00,
2013-04-01 23:21:00,60.0,60.0,29.96,SW,230,7.0,9.0,100,-99.99,,,-99.99,,2013-04-02 03:21:00,
2013-04-01 23:33:00,60.0,60.0,29.96,SW,230,7.0,9.0,100,-99.99,,,-99.99,,2013-04-02 03:33:00,
2013-04-01 23:42:00,60.0,60.0,29.96,SW,230,7.0,9.0,100,-99.99,,,-99.99,,2013-04-02 03:42:00,
2013-04-01 23:52:00,60.0,60.0,29.96,SW,230,7.0,9.0,100,-99.99,,,-99.99,,2013-04-02 03:52:00,